sensor_id;sensor_type;location;lat;lon;timestamp;pressure;altitude;pressure_sealevel;temperature;humidity
27144;BME280;14672;50.250;8.312;2023-04-07T00:01:47;98761.56;;;10.90;67.33
27144;BME280;14672;50.250;8.312;2023-04-07T00:04:13;98758.00;;;10.98;67.08
27144;BME280;14672;50.250;8.312;2023-04-07T00:06:39;98754.16;;;10.92;67.78
27144;BME280;14672;50.250;8.312;2023-04-07T00:09:05;98749.13;;;10.96;67.42
27144;BME280;14672;50.250;8.312;2023-04-07T00:11:31;98751.91;;;10.87;68.25
27144;BME280;14672;50.250;8.312;2023-04-07T00:13:56;98744.97;;;10.88;67.88
27144;BME280;14672;50.250;8.312;2023-04-07T00:16:22;98748.09;;;10.81;68.52
27144;BME280;14672;50.250;8.312;2023-04-07T00:18:48;98749.41;;;10.89;68.12
27144;BME280;14672;50.250;8.312;2023-04-07T00:21:14;98741.69;;;10.90;67.64
27144;BME280;14672;50.250;8.312;2023-04-07T00:23:40;98736.78;;;10.90;67.69
27144;BME280;14672;50.250;8.312;2023-04-07T00:26:07;98742.34;;;10.94;67.57
27144;BME280;14672;50.250;8.312;2023-04-07T00:28:33;98740.44;;;10.91;67.82
27144;BME280;14672;50.250;8.312;2023-04-07T00:30:58;98744.59;;;10.99;67.34
27144;BME280;14672;50.250;8.312;2023-04-07T00:33:24;98741.69;;;10.90;68.05
27144;BME280;14672;50.250;8.312;2023-04-07T00:35:50;98729.72;;;10.95;67.64
27144;BME280;14672;50.250;8.312;2023-04-07T00:38:16;98728.13;;;10.94;68.14
27144;BME280;14672;50.250;8.312;2023-04-07T00:40:42;98733.94;;;10.68;68.88
27144;BME280;14672;50.250;8.312;2023-04-07T00:43:08;98723.50;;;10.87;68.80
27144;BME280;14672;50.250;8.312;2023-04-07T00:45:33;98724.16;;;10.91;67.97
27144;BME280;14672;50.250;8.312;2023-04-07T00:48:00;98718.16;;;10.89;68.03
27144;BME280;14672;50.250;8.312;2023-04-07T00:50:26;98715.69;;;11.00;67.83
27144;BME280;14672;50.250;8.312;2023-04-07T00:52:52;98720.41;;;10.94;67.84
27144;BME280;14672;50.250;8.312;2023-04-07T00:55:19;98709.63;;;10.89;68.53
27144;BME280;14672;50.250;8.312;2023-04-07T00:57:45;98713.31;;;10.99;68.12
27144;BME280;14672;50.250;8.312;2023-04-07T01:00:11;98705.91;;;11.01;67.45
27144;BME280;14672;50.250;8.312;2023-04-07T01:03:02;98701.16;;;10.98;67.91
27144;BME280;14672;50.250;8.312;2023-04-07T01:05:47;98701.16;;;10.98;68.46
27144;BME280;14672;50.250;8.312;2023-04-07T01:08:25;98707.16;;;11.00;68.19
27144;BME280;14672;50.250;8.312;2023-04-07T01:14:22;98694.38;;;11.05;67.67
27144;BME280;14672;50.250;8.312;2023-04-07T01:16:51;98691.09;;;11.06;67.58
27144;BME280;14672;50.250;8.312;2023-04-07T01:19:51;98676.81;;;10.97;68.18
27144;BME280;14672;50.250;8.312;2023-04-07T01:22:31;98681.25;;;10.98;68.83
27144;BME280;14672;50.250;8.312;2023-04-07T01:31:00;98672.47;;;10.83;68.65
27144;BME280;14672;50.250;8.312;2023-04-07T01:33:30;98677.38;;;10.83;68.75
27144;BME280;14672;50.250;8.312;2023-04-07T01:35:59;98675.81;;;10.82;69.30
27144;BME280;14672;50.250;8.312;2023-04-07T01:38:27;98673.63;;;10.86;68.57
27144;BME280;14672;50.250;8.312;2023-04-07T01:40:55;98673.69;;;10.73;69.57
27144;BME280;14672;50.250;8.312;2023-04-07T01:43:23;98675.16;;;10.78;69.27
27144;BME280;14672;50.250;8.312;2023-04-07T01:45:50;98669.19;;;10.85;68.88
27144;BME280;14672;50.250;8.312;2023-04-07T01:48:17;98672.63;;;10.80;68.75
27144;BME280;14672;50.250;8.312;2023-04-07T01:50:45;98665.22;;;10.82;68.97
27144;BME280;14672;50.250;8.312;2023-04-07T01:53:11;98661.25;;;10.80;69.16
27144;BME280;14672;50.250;8.312;2023-04-07T01:55:37;98666.78;;;10.83;68.90
27144;BME280;14672;50.250;8.312;2023-04-07T01:58:07;98666.09;;;10.70;70.02
27144;BME280;14672;50.250;8.312;2023-04-07T02:00:33;98660.56;;;10.67;69.57
27144;BME280;14672;50.250;8.312;2023-04-07T02:03:08;98664.75;;;10.84;69.13
27144;BME280;14672;50.250;8.312;2023-04-07T02:05:38;98652.13;;;10.85;68.77
27144;BME280;14672;50.250;8.312;2023-04-07T02:08:07;98661.75;;;10.88;68.76
27144;BME280;14672;50.250;8.312;2023-04-07T02:10:36;98655.25;;;10.78;69.38
27144;BME280;14672;50.250;8.312;2023-04-07T02:13:05;98662.00;;;10.71;69.06
27144;BME280;14672;50.250;8.312;2023-04-07T02:15:33;98650.63;;;10.71;68.95
27144;BME280;14672;50.250;8.312;2023-04-07T02:18:02;98654.31;;;10.81;68.86
27144;BME280;14672;50.250;8.312;2023-04-07T02:20:29;98652.88;;;10.76;68.90
27144;BME280;14672;50.250;8.312;2023-04-07T02:22:55;98650.97;;;10.73;69.17
27144;BME280;14672;50.250;8.312;2023-04-07T02:27:50;98649.44;;;10.81;68.77
27144;BME280;14672;50.250;8.312;2023-04-07T02:30:16;98646.72;;;10.78;68.90
27144;BME280;14672;50.250;8.312;2023-04-07T02:32:42;98647.00;;;10.71;69.35
27144;BME280;14672;50.250;8.312;2023-04-07T02:35:08;98644.50;;;10.73;69.27
27144;BME280;14672;50.250;8.312;2023-04-07T02:37:34;98652.22;;;10.72;69.24
27144;BME280;14672;50.250;8.312;2023-04-07T02:39:59;98650.81;;;10.77;68.77
27144;BME280;14672;50.250;8.312;2023-04-07T02:42:25;98651.78;;;10.83;68.36
27144;BME280;14672;50.250;8.312;2023-04-07T02:44:51;98646.44;;;10.85;67.92
27144;BME280;14672;50.250;8.312;2023-04-07T02:47:17;98635.28;;;10.91;68.16
27144;BME280;14672;50.250;8.312;2023-04-07T02:49:42;98641.56;;;10.86;68.17
27144;BME280;14672;50.250;8.312;2023-04-07T02:52:08;98634.13;;;10.88;68.00
27144;BME280;14672;50.250;8.312;2023-04-07T02:54:34;98641.66;;;10.73;68.78
27144;BME280;14672;50.250;8.312;2023-04-07T02:56:59;98647.56;;;10.88;68.33
27144;BME280;14672;50.250;8.312;2023-04-07T02:59:26;98642.34;;;10.86;68.30
27144;BME280;14672;50.250;8.312;2023-04-07T03:01:51;98634.47;;;10.90;68.26
27144;BME280;14672;50.250;8.312;2023-04-07T03:04:17;98635.16;;;10.72;69.13
27144;BME280;14672;50.250;8.312;2023-04-07T03:06:43;98636.97;;;10.88;68.27
27144;BME280;14672;50.250;8.312;2023-04-07T03:09:08;98637.91;;;10.85;68.47
27144;BME280;14672;50.250;8.312;2023-04-07T03:11:34;98635.38;;;10.87;68.02
27144;BME280;14672;50.250;8.312;2023-04-07T03:14:00;98631.91;;;10.83;68.59
27144;BME280;14672;50.250;8.312;2023-04-07T03:16:26;98631.63;;;10.90;68.33
27144;BME280;14672;50.250;8.312;2023-04-07T03:18:52;98635.72;;;10.89;68.28
27144;BME280;14672;50.250;8.312;2023-04-07T03:21:17;98624.38;;;10.89;68.47
27144;BME280;14672;50.250;8.312;2023-04-07T03:23:43;98618.53;;;10.93;68.08
27144;BME280;14672;50.250;8.312;2023-04-07T03:26:09;98619.47;;;10.90;67.95
27144;BME280;14672;50.250;8.312;2023-04-07T03:28:34;98630.47;;;10.78;68.75
27144;BME280;14672;50.250;8.312;2023-04-07T03:31:00;98624.66;;;10.91;68.16
27144;BME280;14672;50.250;8.312;2023-04-07T03:33:27;98619.47;;;10.90;68.29
27144;BME280;14672;50.250;8.312;2023-04-07T03:35:52;98615.84;;;10.89;68.39
27144;BME280;14672;50.250;8.312;2023-04-07T03:38:18;98613.66;;;10.93;67.90
27144;BME280;14672;50.250;8.312;2023-04-07T03:40:44;98616.03;;;10.95;68.16
27144;BME280;14672;50.250;8.312;2023-04-07T03:43:09;98621.81;;;10.91;68.09
27144;BME280;14672;50.250;8.312;2023-04-07T03:45:38;98620.13;;;10.94;68.06
27144;BME280;14672;50.250;8.312;2023-04-07T03:48:04;98625.16;;;10.90;68.47
27144;BME280;14672;50.250;8.312;2023-04-07T03:50:30;98624.72;;;11.00;67.91
27144;BME280;14672;50.250;8.312;2023-04-07T03:52:56;98618.03;;;10.85;68.37
27144;BME280;14672;50.250;8.312;2023-04-07T03:55:21;98619.13;;;10.88;68.56
27144;BME280;14672;50.250;8.312;2023-04-07T03:57:47;98619.75;;;10.82;68.33
27144;BME280;14672;50.250;8.312;2023-04-07T04:00:13;98621.91;;;10.69;69.42
27144;BME280;14672;50.250;8.312;2023-04-07T04:02:39;98623.72;;;10.85;68.67
27144;BME280;14672;50.250;8.312;2023-04-07T04:05:05;98615.72;;;10.62;69.36
27144;BME280;14672;50.250;8.312;2023-04-07T04:07:31;98614.09;;;10.82;69.15
27144;BME280;14672;50.250;8.312;2023-04-07T04:09:58;98615.78;;;10.80;68.36
27144;BME280;14672;50.250;8.312;2023-04-07T04:12:23;98614.19;;;10.70;69.05
27144;BME280;14672;50.250;8.312;2023-04-07T04:14:49;98615.78;;;10.80;68.87
27144;BME280;14672;50.250;8.312;2023-04-07T04:17:15;98614.19;;;10.70;68.84
27144;BME280;14672;50.250;8.312;2023-04-07T04:19:41;98613.84;;;10.68;69.44
27144;BME280;14672;50.250;8.312;2023-04-07T04:22:06;98614.09;;;10.82;68.30
27144;BME280;14672;50.250;8.312;2023-04-07T04:24:32;98611.69;;;10.81;68.46
27144;BME280;14672;50.250;8.312;2023-04-07T04:26:58;98615.19;;;10.85;68.32
27144;BME280;14672;50.250;8.312;2023-04-07T04:29:24;98616.13;;;10.82;68.30
27144;BME280;14672;50.250;8.312;2023-04-07T04:31:50;98619.75;;;10.82;68.70
27144;BME280;14672;50.250;8.312;2023-04-07T04:34:15;98620.53;;;10.83;69.05
27144;BME280;14672;50.250;8.312;2023-04-07T04:36:42;98622.31;;;10.90;68.47
27144;BME280;14672;50.250;8.312;2023-04-07T04:39:07;98620.28;;;10.90;68.66
27144;BME280;14672;50.250;8.312;2023-04-07T04:41:33;98616.91;;;10.82;68.87
27144;BME280;14672;50.250;8.312;2023-04-07T04:43:59;98618.91;;;10.73;69.46
27144;BME280;14672;50.250;8.312;2023-04-07T04:46:25;98621.19;;;10.87;69.03
27144;BME280;14672;50.250;8.312;2023-04-07T04:48:51;98617.53;;;10.77;69.09
27144;BME280;14672;50.250;8.312;2023-04-07T04:51:19;98623.53;;;10.79;69.33
27144;BME280;14672;50.250;8.312;2023-04-07T04:53:44;98627.50;;;10.82;69.13
27144;BME280;14672;50.250;8.312;2023-04-07T04:56:10;98623.25;;;10.87;68.87
27144;BME280;14672;50.250;8.312;2023-04-07T04:58:36;98620.69;;;10.79;68.97
27144;BME280;14672;50.250;8.312;2023-04-07T05:01:04;98630.84;;;10.90;68.51
27144;BME280;14672;50.250;8.312;2023-04-07T05:03:30;98624.38;;;10.89;68.61
27144;BME280;14672;50.250;8.312;2023-04-07T05:05:56;98628.88;;;10.77;69.40
27144;BME280;14672;50.250;8.312;2023-04-07T05:08:22;98632.84;;;10.80;69.42
27144;BME280;14672;50.250;8.312;2023-04-07T05:10:47;98633.31;;;10.78;69.27
27144;BME280;14672;50.250;8.312;2023-04-07T05:13:13;98638.94;;;10.69;69.38
27144;BME280;14672;50.250;8.312;2023-04-07T05:15:40;98639.31;;;10.80;69.71
27144;BME280;14672;50.250;8.312;2023-04-07T05:18:06;98644.84;;;10.84;69.14
27144;BME280;14672;50.250;8.312;2023-04-07T05:20:32;98628.75;;;10.81;68.98
27144;BME280;14672;50.250;8.312;2023-04-07T05:22:58;98630.03;;;10.89;68.81
27144;BME280;14672;50.250;8.312;2023-04-07T05:25:24;98632.09;;;10.89;69.34
27144;BME280;14672;50.250;8.312;2023-04-07T05:27:49;98639.03;;;10.88;68.96
27144;BME280;14672;50.250;8.312;2023-04-07T05:30:16;98636.53;;;10.90;68.59
27144;BME280;14672;50.250;8.312;2023-04-07T05:32:41;98642.31;;;10.77;69.79
27144;BME280;14672;50.250;8.312;2023-04-07T05:35:08;98637.28;;;10.81;69.33
27144;BME280;14672;50.250;8.312;2023-04-07T05:37:33;98639.69;;;10.92;68.95
27144;BME280;14672;50.250;8.312;2023-04-07T05:39:59;98648.63;;;10.81;69.12
27144;BME280;14672;50.250;8.312;2023-04-07T05:42:25;98640.47;;;10.92;68.76
27144;BME280;14672;50.250;8.312;2023-04-07T05:44:51;98642.22;;;10.90;68.90
27144;BME280;14672;50.250;8.312;2023-04-07T05:47:17;98634.47;;;10.90;69.22
27144;BME280;14672;50.250;8.312;2023-04-07T05:49:44;98634.66;;;10.96;68.67
27144;BME280;14672;50.250;8.312;2023-04-07T05:52:13;98633.72;;;10.99;68.93
27144;BME280;14672;50.250;8.312;2023-04-07T05:54:39;98638.47;;;11.02;69.15
27144;BME280;14672;50.250;8.312;2023-04-07T05:57:08;98647.50;;;11.09;68.28
27144;BME280;14672;50.250;8.312;2023-04-07T05:59:34;98632.00;;;11.01;69.39
27144;BME280;14672;50.250;8.312;2023-04-07T06:02:02;98637.69;;;11.01;69.15
27144;BME280;14672;50.250;8.312;2023-04-07T06:04:28;98637.38;;;11.08;68.84
27144;BME280;14672;50.250;8.312;2023-04-07T06:06:54;98638.13;;;11.00;69.28
27144;BME280;14672;50.250;8.312;2023-04-07T06:09:21;98634.03;;;11.01;69.48
27144;BME280;14672;50.250;8.312;2023-04-07T06:11:47;98634.88;;;11.10;68.79
27144;BME280;14672;50.250;8.312;2023-04-07T06:14:13;98640.38;;;11.05;69.04
27144;BME280;14672;50.250;8.312;2023-04-07T06:16:39;98633.44;;;11.06;69.25
27144;BME280;14672;50.250;8.312;2023-04-07T06:19:05;98640.03;;;11.03;69.40
27144;BME280;14672;50.250;8.312;2023-04-07T06:21:32;98637.03;;;10.97;69.60
27144;BME280;14672;50.250;8.312;2023-04-07T06:23:59;98638.94;;;11.00;69.76
27144;BME280;14672;50.250;8.312;2023-04-07T06:26:25;98638.97;;;11.09;69.21
27144;BME280;14672;50.250;8.312;2023-04-07T06:28:52;98644.06;;;11.14;69.31
27144;BME280;14672;50.250;8.312;2023-04-07T06:31:18;98646.91;;;11.14;68.93
27144;BME280;14672;50.250;8.312;2023-04-07T06:33:44;98640.28;;;11.17;68.92
27144;BME280;14672;50.250;8.312;2023-04-07T06:36:11;98653.22;;;11.18;68.51
27144;BME280;14672;50.250;8.312;2023-04-07T06:38:37;98651.63;;;11.17;68.46
27144;BME280;14672;50.250;8.312;2023-04-07T06:41:03;98646.25;;;11.19;68.42
27144;BME280;14672;50.250;8.312;2023-04-07T06:43:29;98650.06;;;11.16;69.13
27144;BME280;14672;50.250;8.312;2023-04-07T06:45:56;98643.41;;;11.19;68.83
27144;BME280;14672;50.250;8.312;2023-04-07T06:48:22;98650.38;;;11.18;68.58
27144;BME280;14672;50.250;8.312;2023-04-07T06:50:48;98644.38;;;11.16;68.78
27144;BME280;14672;50.250;8.312;2023-04-07T06:53:14;98639.78;;;11.19;69.19
27144;BME280;14672;50.250;8.312;2023-04-07T06:55:40;98645.81;;;11.21;68.97
27144;BME280;14672;50.250;8.312;2023-04-07T06:58:06;98646.59;;;11.21;69.07
27144;BME280;14672;50.250;8.312;2023-04-07T07:00:32;98653.25;;;11.27;69.00
27144;BME280;14672;50.250;8.312;2023-04-07T07:02:58;98652.41;;;11.09;69.71
27144;BME280;14672;50.250;8.312;2023-04-07T07:05:25;98659.56;;;11.22;69.13
27144;BME280;14672;50.250;8.312;2023-04-07T07:07:50;98651.94;;;11.10;69.98
27144;BME280;14672;50.250;8.312;2023-04-07T07:10:16;98659.53;;;11.13;69.46
27144;BME280;14672;50.250;8.312;2023-04-07T07:12:42;98654.59;;;11.05;69.99
27144;BME280;14672;50.250;8.312;2023-04-07T07:15:08;98663.97;;;11.23;69.54
27144;BME280;14672;50.250;8.312;2023-04-07T07:17:34;98659.88;;;11.24;69.23
27144;BME280;14672;50.250;8.312;2023-04-07T07:20:09;98661.56;;;11.13;69.06
27144;BME280;14672;50.250;8.312;2023-04-07T07:22:35;98657.97;;;11.21;69.01
27144;BME280;14672;50.250;8.312;2023-04-07T07:25:01;98667.56;;;11.15;69.97
27144;BME280;14672;50.250;8.312;2023-04-07T07:27:27;98664.91;;;11.20;69.81
27144;BME280;14672;50.250;8.312;2023-04-07T07:29:55;98663.38;;;11.28;69.64
27144;BME280;14672;50.250;8.312;2023-04-07T07:32:21;98668.75;;;11.36;69.38
27144;BME280;14672;50.250;8.312;2023-04-07T07:34:47;98667.59;;;11.24;69.59
27144;BME280;14672;50.250;8.312;2023-04-07T07:37:12;98669.66;;;11.23;69.50
27144;BME280;14672;50.250;8.312;2023-04-07T07:39:38;98673.00;;;11.31;69.06
27144;BME280;14672;50.250;8.312;2023-04-07T07:42:04;98667.94;;;11.26;69.22
27144;BME280;14672;50.250;8.312;2023-04-07T07:44:30;98674.44;;;11.36;69.18
27144;BME280;14672;50.250;8.312;2023-04-07T07:46:55;98677.78;;;11.34;69.49
27144;BME280;14672;50.250;8.312;2023-04-07T07:49:21;98678.53;;;11.35;69.06
27144;BME280;14672;50.250;8.312;2023-04-07T07:51:47;98679.97;;;11.39;69.39
27144;BME280;14672;50.250;8.312;2023-04-07T07:54:13;98679.84;;;11.43;69.02
27144;BME280;14672;50.250;8.312;2023-04-07T07:56:38;98682.06;;;11.48;68.70
27144;BME280;14672;50.250;8.312;2023-04-07T07:59:04;98672.28;;;11.49;69.31
27144;BME280;14672;50.250;8.312;2023-04-07T08:01:33;98679.41;;;11.53;69.08
27144;BME280;14672;50.250;8.312;2023-04-07T08:03:59;98686.19;;;11.56;68.41
27144;BME280;14672;50.250;8.312;2023-04-07T08:06:25;98688.72;;;11.54;68.91
27144;BME280;14672;50.250;8.312;2023-04-07T08:08:53;98684.78;;;11.60;68.85
27144;BME280;14672;50.250;8.312;2023-04-07T08:11:19;98692.53;;;11.60;68.81
27144;BME280;14672;50.250;8.312;2023-04-07T08:13:45;98687.78;;;11.57;69.22
27144;BME280;14672;50.250;8.312;2023-04-07T08:16:11;98695.06;;;11.58;69.57
27144;BME280;14672;50.250;8.312;2023-04-07T08:18:37;98696.03;;;11.64;69.03
27144;BME280;14672;50.250;8.312;2023-04-07T08:21:06;98704.41;;;11.67;69.03
27144;BME280;14672;50.250;8.312;2023-04-07T08:23:32;98704.63;;;11.73;68.42
27144;BME280;14672;50.250;8.312;2023-04-07T08:25:58;98700.53;;;11.74;68.98
27144;BME280;14672;50.250;8.312;2023-04-07T08:28:25;98701.56;;;11.67;69.12
27144;BME280;14672;50.250;8.312;2023-04-07T08:30:51;98704.91;;;11.66;69.33
27144;BME280;14672;50.250;8.312;2023-04-07T08:33:17;98707.47;;;11.73;68.84
27144;BME280;14672;50.250;8.312;2023-04-07T08:35:42;98711.09;;;11.73;69.29
27144;BME280;14672;50.250;8.312;2023-04-07T08:38:08;98711.09;;;11.73;69.53
27144;BME280;14672;50.250;8.312;2023-04-07T08:40:34;98713.44;;;11.66;70.23
27144;BME280;14672;50.250;8.312;2023-04-07T08:43:08;98711.25;;;11.79;69.98
27144;BME280;14672;50.250;8.312;2023-04-07T08:45:39;98714.75;;;11.83;69.62
27144;BME280;14672;50.250;8.312;2023-04-07T08:48:17;98712.88;;;11.89;70.03
27144;BME280;14672;50.250;8.312;2023-04-07T08:50:48;98718.56;;;11.89;70.18
27144;BME280;14672;50.250;8.312;2023-04-07T08:53:23;98715.09;;;11.94;69.37
27144;BME280;14672;50.250;8.312;2023-04-07T08:55:55;98718.41;;;11.93;68.49
27144;BME280;14672;50.250;8.312;2023-04-07T08:58:21;98722.38;;;11.95;68.85
27144;BME280;14672;50.250;8.312;2023-04-07T09:00:48;98720.50;;;12.01;68.89
27144;BME280;14672;50.250;8.312;2023-04-07T09:03:15;98723.63;;;12.03;68.86
27144;BME280;14672;50.250;8.312;2023-04-07T09:05:44;98724.28;;;12.07;69.12
27144;BME280;14672;50.250;8.312;2023-04-07T09:08:11;98725.88;;;12.08;69.06
27144;BME280;14672;50.250;8.312;2023-04-07T09:10:37;98727.44;;;12.18;69.20
27144;BME280;14672;50.250;8.312;2023-04-07T09:13:03;98727.94;;;12.17;68.88
27144;BME280;14672;50.250;8.312;2023-04-07T09:15:30;98731.88;;;12.19;69.09
27144;BME280;14672;50.250;8.312;2023-04-07T09:17:59;98731.28;;;12.24;68.85
27144;BME280;14672;50.250;8.312;2023-04-07T09:20:25;98735.06;;;12.31;68.60
27144;BME280;14672;50.250;8.312;2023-04-07T09:22:50;98736.66;;;12.41;68.50
27144;BME280;14672;50.250;8.312;2023-04-07T09:25:22;98738.72;;;12.49;68.63
27144;BME280;14672;50.250;8.312;2023-04-07T09:30:27;98742.34;;;12.41;67.80
27144;BME280;14672;50.250;8.312;2023-04-07T09:32:55;98739.19;;;12.48;68.64
27144;BME280;14672;50.250;8.312;2023-04-07T09:35:22;98745.84;;;12.54;68.31
27144;BME280;14672;50.250;8.312;2023-04-07T09:38:07;98749.94;;;12.53;68.44
27144;BME280;14672;50.250;8.312;2023-04-07T09:40:34;98749.31;;;12.49;68.14
27144;BME280;14672;50.250;8.312;2023-04-07T09:43:03;98745.69;;;12.57;67.78
27144;BME280;14672;50.250;8.312;2023-04-07T09:45:31;98743.28;;;12.56;67.99
27144;BME280;14672;50.250;8.312;2023-04-07T09:47:57;98749.00;;;12.65;68.11
27144;BME280;14672;50.250;8.312;2023-04-07T09:50:39;98746.78;;;12.69;68.70
27144;BME280;14672;50.250;8.312;2023-04-07T09:53:05;98746.00;;;12.68;68.46
27144;BME280;14672;50.250;8.312;2023-04-07T09:55:32;98754.84;;;12.70;68.35
27144;BME280;14672;50.250;8.312;2023-04-07T09:57:58;98757.88;;;12.58;68.30
27144;BME280;14672;50.250;8.312;2023-04-07T10:00:25;98757.72;;;12.61;68.32
27144;BME280;14672;50.250;8.312;2023-04-07T10:02:51;98763.25;;;12.65;67.96
27144;BME280;14672;50.250;8.312;2023-04-07T10:05:18;98761.97;;;12.66;68.44
27144;BME280;14672;50.250;8.312;2023-04-07T10:07:47;98759.09;;;12.66;68.54
27144;BME280;14672;50.250;8.312;2023-04-07T10:10:14;98757.06;;;12.76;67.86
27144;BME280;14672;50.250;8.312;2023-04-07T10:12:41;98763.09;;;12.68;68.10
27144;BME280;14672;50.250;8.312;2023-04-07T10:15:09;98758.19;;;12.60;67.75
27144;BME280;14672;50.250;8.312;2023-04-07T10:17:39;98761.34;;;12.71;68.50
27144;BME280;14672;50.250;8.312;2023-04-07T10:20:06;98767.50;;;12.79;67.55
27144;BME280;14672;50.250;8.312;2023-04-07T10:22:35;98766.06;;;12.74;68.47
27144;BME280;14672;50.250;8.312;2023-04-07T10:25:09;98769.38;;;13.00;68.22
27144;BME280;14672;50.250;8.312;2023-04-07T10:27:42;98771.16;;;12.97;68.23
27144;BME280;14672;50.250;8.312;2023-04-07T10:30:21;98764.59;;;13.06;67.99
27144;BME280;14672;50.250;8.312;2023-04-07T10:32:50;98762.41;;;13.19;67.64
27144;BME280;14672;50.250;8.312;2023-04-07T10:35:17;98764.78;;;13.21;67.22
27144;BME280;14672;50.250;8.312;2023-04-07T10:40:39;98766.84;;;13.11;65.49
27144;BME280;14672;50.250;8.312;2023-04-07T10:43:06;98777.78;;;13.22;65.50
27144;BME280;14672;50.250;8.312;2023-04-07T10:45:57;98775.50;;;13.35;65.25
27144;BME280;14672;50.250;8.312;2023-04-07T10:48:24;98769.31;;;13.36;65.45
27144;BME280;14672;50.250;8.312;2023-04-07T10:53:30;98780.84;;;13.51;64.08
27144;BME280;14672;50.250;8.312;2023-04-07T10:55:57;98786.19;;;13.58;64.28
27144;BME280;14672;50.250;8.312;2023-04-07T10:58:32;98784.75;;;13.62;64.23
27144;BME280;14672;50.250;8.312;2023-04-07T11:03:39;98782.50;;;13.76;63.84
27144;BME280;14672;50.250;8.312;2023-04-07T11:06:13;98791.53;;;13.74;63.76
27144;BME280;14672;50.250;8.312;2023-04-07T11:08:44;98792.47;;;13.80;63.77
27144;BME280;14672;50.250;8.312;2023-04-07T11:11:19;98787.22;;;13.79;63.61
27144;BME280;14672;50.250;8.312;2023-04-07T11:13:49;98784.88;;;13.77;63.83
27144;BME280;14672;50.250;8.312;2023-04-07T11:16:18;98785.50;;;13.81;63.32
27144;BME280;14672;50.250;8.312;2023-04-07T11:18:46;98794.00;;;13.90;63.66
27144;BME280;14672;50.250;8.312;2023-04-07T11:21:17;98784.78;;;13.95;62.98
27144;BME280;14672;50.250;8.312;2023-04-07T11:23:46;98788.28;;;13.90;63.45
27144;BME280;14672;50.250;8.312;2023-04-07T11:26:14;98796.81;;;13.99;62.92
27144;BME280;14672;50.250;8.312;2023-04-07T11:28:52;98792.69;;;14.00;63.72
27144;BME280;14672;50.250;8.312;2023-04-07T11:31:28;98791.34;;;14.10;62.80
27144;BME280;14672;50.250;8.312;2023-04-07T11:34:02;98790.56;;;14.10;62.96
27144;BME280;14672;50.250;8.312;2023-04-07T11:36:38;98804.03;;;14.09;63.21
27144;BME280;14672;50.250;8.312;2023-04-07T11:39:08;98805.53;;;14.05;63.62
27144;BME280;14672;50.250;8.312;2023-04-07T11:41:47;98796.97;;;14.05;63.83
27144;BME280;14672;50.250;8.312;2023-04-07T11:44:14;98804.72;;;14.04;63.38
27144;BME280;14672;50.250;8.312;2023-04-07T11:46:55;98797.09;;;14.01;63.88
27144;BME280;14672;50.250;8.312;2023-04-07T11:49:21;98800.56;;;14.05;63.32
27144;BME280;14672;50.250;8.312;2023-04-07T11:52:05;98806.78;;;14.04;63.85
27144;BME280;14672;50.250;8.312;2023-04-07T11:54:44;98811.38;;;14.01;63.15
27144;BME280;14672;50.250;8.312;2023-04-07T11:57:27;98816.34;;;14.01;63.04
27144;BME280;14672;50.250;8.312;2023-04-07T12:00:10;98815.19;;;14.07;62.93
27144;BME280;14672;50.250;8.312;2023-04-07T12:02:37;98817.72;;;14.05;62.42
27144;BME280;14672;50.250;8.312;2023-04-07T12:05:04;98815.97;;;14.08;62.61
27144;BME280;14672;50.250;8.312;2023-04-07T12:07:32;98821.25;;;14.00;62.78
27144;BME280;14672;50.250;8.312;2023-04-07T12:10:21;98816.16;;;14.04;61.80
27144;BME280;14672;50.250;8.312;2023-04-07T12:12:48;98822.66;;;14.05;61.81
27144;BME280;14672;50.250;8.312;2023-04-07T12:15:17;98819.31;;;14.06;61.92
27144;BME280;14672;50.250;8.312;2023-04-07T12:17:47;98819.66;;;13.99;62.27
27144;BME280;14672;50.250;8.312;2023-04-07T12:20:16;98819.66;;;13.99;62.12
27144;BME280;14672;50.250;8.312;2023-04-07T12:22:51;98825.03;;;14.06;60.88
27144;BME280;14672;50.250;8.312;2023-04-07T12:25:18;98821.38;;;14.06;61.27
27144;BME280;14672;50.250;8.312;2023-04-07T12:27:44;98825.44;;;14.14;61.33
27144;BME280;14672;50.250;8.312;2023-04-07T12:30:11;98827.84;;;14.16;61.11
27144;BME280;14672;50.250;8.312;2023-04-07T12:32:38;98830.66;;;14.25;61.41
27144;BME280;14672;50.250;8.312;2023-04-07T12:35:06;98826.22;;;14.24;61.71
27144;BME280;14672;50.250;8.312;2023-04-07T12:37:32;98828.44;;;14.20;61.88
27144;BME280;14672;50.250;8.312;2023-04-07T12:39:58;98835.75;;;14.21;62.25
27144;BME280;14672;50.250;8.312;2023-04-07T12:42:25;98829.28;;;14.11;62.26
27144;BME280;14672;50.250;8.312;2023-04-07T12:44:51;98831.06;;;14.08;61.54
27144;BME280;14672;50.250;8.312;2023-04-07T12:47:17;98836.09;;;14.13;61.64
27144;BME280;14672;50.250;8.312;2023-04-07T12:49:45;98839.44;;;14.12;62.46
27144;BME280;14672;50.250;8.312;2023-04-07T12:52:11;98843.03;;;14.22;62.00
27144;BME280;14672;50.250;8.312;2023-04-07T12:54:38;98836.41;;;14.16;62.63
27144;BME280;14672;50.250;8.312;2023-04-07T12:57:04;98839.88;;;14.20;63.24
27144;BME280;14672;50.250;8.312;2023-04-07T12:59:30;98839.69;;;14.23;63.40
27144;BME280;14672;50.250;8.312;2023-04-07T13:01:56;98849.72;;;14.19;64.01
27144;BME280;14672;50.250;8.312;2023-04-07T13:04:22;98844.00;;;14.19;63.58
27144;BME280;14672;50.250;8.312;2023-04-07T13:06:51;98842.56;;;14.23;62.73
27144;BME280;14672;50.250;8.312;2023-04-07T13:09:17;98853.16;;;14.32;62.37
27144;BME280;14672;50.250;8.312;2023-04-07T13:11:43;98835.25;;;14.22;63.20
27144;BME280;14672;50.250;8.312;2023-04-07T13:14:11;98840.88;;;14.07;63.86
27144;BME280;14672;50.250;8.312;2023-04-07T13:16:37;98848.41;;;14.29;63.23
27144;BME280;14672;50.250;8.312;2023-04-07T13:19:03;98845.50;;;14.38;64.01
27144;BME280;14672;50.250;8.312;2023-04-07T13:21:30;98847.91;;;14.30;62.87
27144;BME280;14672;50.250;8.312;2023-04-07T13:23:57;98840.13;;;14.31;63.03
27144;BME280;14672;50.250;8.312;2023-04-07T13:26:23;98842.34;;;14.36;63.48